Time;durP1;ratioP1;P1;durP2;ratioP2;P2;SDS_P1;SDS_P2;PMS_P1;PMS_P2;Temp;Humidity;BMP_temperature;BMP_pressure;BME280_temperature;BME280_humidity;BME280_pressure;Samples;Min_cycle;Max_cycle;Signal;HPM_P1;HPM_P2
2023/07/05 00:00:28;;;;;;;3.08;2.37;;;22.40;49.80;;;;;;899339;155;27350;-74
2023/07/05 00:02:54;;;;;;;2.98;2.35;;;22.40;49.90;;;;;;897959;155;27394;-74
2023/07/05 00:05:21;;;;;;;2.50;2.30;;;22.40;50.00;;;;;;898122;157;27389;-74
2023/07/05 00:07:48;;;;;;;2.40;2.20;;;22.40;50.00;;;;;;896544;155;27386;-74
2023/07/05 00:10:14;;;;;;;2.80;2.25;;;22.40;50.70;;;;;;899918;155;27363;-74
2023/07/05 00:12:41;;;;;;;1.92;1.82;;;22.40;50.20;;;;;;900934;155;27388;-74
2023/07/05 00:15:07;;;;;;;2.85;1.87;;;22.50;50.30;;;;;;899870;155;27481;-74
2023/07/05 00:17:34;;;;;;;2.42;2.10;;;22.50;50.40;;;;;;899360;155;27315;-74
2023/07/05 00:20:00;;;;;;;2.02;1.87;;;22.50;50.40;;;;;;899279;155;27380;-75
2023/07/05 00:22:27;;;;;;;2.35;2.10;;;22.50;51.10;;;;;;899754;155;27390;-75
2023/07/05 00:24:54;;;;;;;2.67;2.15;;;22.50;50.60;;;;;;898784;155;27405;-75
2023/07/05 00:27:23;;;;;;;2.62;2.27;;;22.50;51.00;;;;;;900894;155;27957;-75
2023/07/05 00:29:50;;;;;;;2.12;2.00;;;22.50;51.40;;;;;;897833;155;27418;-75
2023/07/05 00:32:16;;;;;;;2.20;2.00;;;22.50;51.60;;;;;;897981;155;27485;-75
2023/07/05 00:34:43;;;;;;;1.60;1.45;;;22.50;51.80;;;;;;899027;155;27524;-75
2023/07/05 00:37:10;;;;;;;2.17;2.02;;;22.50;52.10;;;;;;898828;155;28319;-75
2023/07/05 00:39:36;;;;;;;2.02;1.80;;;22.50;52.20;;;;;;898463;155;27898;-75
2023/07/05 00:42:03;;;;;;;5.30;2.10;;;22.50;52.50;;;;;;899335;155;27456;-75
2023/07/05 00:44:29;;;;;;;1.70;1.60;;;22.50;53.00;;;;;;900143;155;27362;-75
2023/07/05 00:47:17;;;;;;;2.15;1.70;;;22.50;53.40;;;;;;898640;155;27409;-75
2023/07/05 00:49:43;;;;;;;2.58;1.80;;;22.50;53.90;;;;;;897185;155;27365;-75
2023/07/05 00:52:13;;;;;;;1.75;1.60;;;22.40;54.10;;;;;;901096;155;27390;-75
2023/07/05 00:54:39;;;;;;;2.65;2.10;;;22.40;54.80;;;;;;896320;157;27428;-75
2023/07/05 00:57:06;;;;;;;4.60;1.80;;;22.40;55.10;;;;;;898420;155;27932;-76
2023/07/05 00:59:33;;;;;;;2.00;1.80;;;22.30;55.40;;;;;;900352;155;27860;-76
2023/07/05 01:01:59;;;;;;;1.52;1.30;;;22.20;55.50;;;;;;896983;155;27485;-76
2023/07/05 01:04:26;;;;;;;1.65;1.40;;;22.20;55.90;;;;;;900996;155;27367;-76
2023/07/05 01:06:52;;;;;;;1.40;1.30;;;22.10;56.00;;;;;;897340;155;27493;-76
2023/07/05 01:09:19;;;;;;;1.40;1.30;;;22.00;56.40;;;;;;899608;155;27492;-76
2023/07/05 01:11:47;;;;;;;3.40;1.35;;;21.90;56.60;;;;;;897190;155;27383;-76
2023/07/05 01:14:12;;;;;;;1.62;1.37;;;21.80;57.00;;;;;;898058;155;27314;-76
2023/07/05 01:16:54;;;;;;;2.12;1.52;;;21.70;57.20;;;;;;894422;155;27440;-76
2023/07/05 01:19:57;;;;;;;1.50;1.40;;;21.60;57.50;;;;;;878279;159;27448;-75
2023/07/05 01:22:51;;;;;;;2.25;1.52;;;21.50;57.80;;;;;;897863;155;27421;-75
2023/07/05 01:25:36;;;;;;;1.32;1.22;;;21.40;57.80;;;;;;898949;155;27814;-75
2023/07/05 01:28:06;;;;;;;1.57;1.07;;;21.20;58.20;;;;;;898327;155;27395;-75
2023/07/05 01:30:41;;;;;;;1.32;1.25;;;21.10;58.70;;;;;;899506;155;27357;-76
2023/07/05 01:33:08;;;;;;;1.37;1.27;;;21.00;59.30;;;;;;898948;155;27363;-75
2023/07/05 01:35:37;;;;;;;2.00;1.50;;;20.90;59.40;;;;;;895382;155;27489;-74
2023/07/05 01:38:09;;;;;;;2.15;1.55;;;20.80;59.80;;;;;;899437;155;27556;-73
2023/07/05 01:40:33;;;;;;;2.58;1.72;;;20.70;60.10;;;;;;898638;155;27487;-74
2023/07/05 01:43:03;;;;;;;3.47;2.27;;;20.60;60.40;;;;;;899671;155;27428;-74
2023/07/05 01:45:35;;;;;;;1.72;1.62;;;20.50;60.90;;;;;;898176;155;27422;-74
2023/07/05 01:48:14;;;;;;;1.80;1.70;;;20.40;61.30;;;;;;899609;155;27412;-74
2023/07/05 01:50:40;;;;;;;2.12;1.60;;;20.30;61.60;;;;;;897362;155;27422;-74
2023/07/05 01:53:16;;;;;;;2.27;1.50;;;20.20;62.30;;;;;;896812;155;27493;-74
2023/07/05 01:55:42;;;;;;;2.70;1.35;;;20.10;63.00;;;;;;887444;155;27429;-74
2023/07/05 01:58:09;;;;;;;1.67;1.57;;;20.00;63.30;;;;;;897278;155;27335;-74
2023/07/05 02:00:37;;;;;;;2.22;1.27;;;20.00;63.80;;;;;;898562;155;27511;-74
2023/07/05 02:03:04;;;;;;;2.62;1.80;;;19.90;64.10;;;;;;900952;155;27386;-74
2023/07/05 02:05:29;;;;;;;1.35;1.25;;;19.90;64.60;;;;;;897883;154;27410;-74
2023/07/05 02:07:55;;;;;;;1.40;1.30;;;19.80;64.60;;;;;;898106;155;27427;-74
2023/07/05 02:10:22;;;;;;;2.72;1.60;;;19.80;65.00;;;;;;898924;155;27430;-73
2023/07/05 02:12:48;;;;;;;1.32;1.22;;;19.70;64.90;;;;;;899207;157;27402;-74
2023/07/05 02:15:15;;;;;;;2.27;1.45;;;19.70;65.20;;;;;;898944;154;27455;-74
2023/07/05 02:17:41;;;;;;;3.62;1.98;;;19.70;65.70;;;;;;897771;155;27502;-74
2023/07/05 02:20:08;;;;;;;2.22;1.47;;;19.70;66.10;;;;;;899337;155;27436;-74
2023/07/05 02:22:35;;;;;;;1.27;1.17;;;19.60;66.10;;;;;;899143;155;27393;-74
2023/07/05 02:25:01;;;;;;;1.72;1.47;;;19.60;66.60;;;;;;899221;155;27383;-76
2023/07/05 02:27:28;;;;;;;2.98;1.65;;;19.60;66.80;;;;;;898767;155;27408;-76
2023/07/05 02:29:54;;;;;;;1.52;1.42;;;19.60;66.90;;;;;;898406;155;27348;-76
2023/07/05 02:32:21;;;;;;;2.15;1.30;;;19.60;67.40;;;;;;897435;155;27414;-76
2023/07/05 02:34:48;;;;;;;1.52;1.40;;;19.60;67.50;;;;;;899287;155;28247;-76
2023/07/05 02:37:14;;;;;;;2.00;1.40;;;19.50;67.70;;;;;;899149;155;27504;-76
2023/07/05 02:39:41;;;;;;;1.30;1.15;;;19.50;67.70;;;;;;899650;155;28229;-76
2023/07/05 02:42:07;;;;;;;2.05;1.25;;;19.50;68.00;;;;;;898415;155;27432;-76
2023/07/05 02:44:34;;;;;;;1.85;1.17;;;19.40;68.10;;;;;;898377;155;27481;-76
2023/07/05 02:47:01;;;;;;;1.85;1.42;;;19.40;68.30;;;;;;897943;155;27387;-76
2023/07/05 02:49:27;;;;;;;2.87;1.85;;;19.40;68.50;;;;;;898077;155;27498;-76
2023/07/05 02:51:54;;;;;;;2.75;1.45;;;19.40;68.60;;;;;;897726;155;27387;-77
2023/07/05 02:54:20;;;;;;;2.40;1.30;;;19.30;68.90;;;;;;900909;155;27466;-72
2023/07/05 02:56:47;;;;;;;1.87;1.40;;;19.30;69.10;;;;;;899768;155;27483;-72
2023/07/05 02:59:14;;;;;;;3.10;1.30;;;19.30;69.30;;;;;;898689;155;27520;-72
2023/07/05 03:01:40;;;;;;;1.30;1.10;;;19.20;69.50;;;;;;900125;155;27549;-72
2023/07/05 03:04:07;;;;;;;2.83;1.75;;;19.20;69.80;;;;;;898772;155;27324;-72
2023/07/05 03:06:33;;;;;;;1.12;1.00;;;19.20;70.00;;;;;;899634;155;27389;-72
2023/07/05 03:09:00;;;;;;;2.85;1.30;;;19.20;70.40;;;;;;898520;155;27394;-72
2023/07/05 03:11:26;;;;;;;2.58;1.40;;;19.20;70.40;;;;;;898203;155;27375;-72
2023/07/05 03:13:53;;;;;;;1.50;1.40;;;19.20;71.00;;;;;;899772;155;27288;-73
2023/07/05 03:16:20;;;;;;;1.40;1.02;;;19.20;71.00;;;;;;899754;155;27914;-72
2023/07/05 03:18:46;;;;;;;1.52;1.42;;;19.20;71.40;;;;;;899135;155;27531;-73
2023/07/05 03:21:13;;;;;;;1.92;1.50;;;19.20;71.50;;;;;;899060;155;27509;-72
2023/07/05 03:23:39;;;;;;;2.92;1.52;;;19.10;71.50;;;;;;899284;157;27379;-72
2023/07/05 03:26:08;;;;;;;2.85;1.65;;;19.10;71.80;;;;;;896507;155;27440;-72
2023/07/05 03:28:33;;;;;;;2.42;1.95;;;19.10;72.10;;;;;;899690;155;27476;-73
2023/07/05 03:31:11;;;;;;;2.25;1.35;;;19.10;72.30;;;;;;899043;155;27492;-72
2023/07/05 03:33:37;;;;;;;3.90;1.82;;;19.10;72.70;;;;;;898670;155;27426;-72
2023/07/05 03:36:07;;;;;;;1.92;1.60;;;19.10;72.60;;;;;;899661;155;27436;-73
2023/07/05 03:38:33;;;;;;;1.70;1.60;;;19.10;72.90;;;;;;898433;155;27420;-72
2023/07/05 03:41:03;;;;;;;2.05;1.80;;;19.10;73.00;;;;;;898977;155;27513;-72
2023/07/05 03:43:29;;;;;;;2.10;1.70;;;19.10;73.20;;;;;;896663;155;27374;-72
2023/07/05 03:45:56;;;;;;;1.62;1.52;;;19.10;73.70;;;;;;899288;155;27435;-72
2023/07/05 03:48:22;;;;;;;2.22;1.98;;;19.10;73.80;;;;;;899453;155;27415;-73
2023/07/05 03:50:49;;;;;;;2.00;1.75;;;19.10;74.00;;;;;;899287;155;27470;-72
2023/07/05 03:53:16;;;;;;;1.70;1.60;;;19.10;74.30;;;;;;898955;155;27400;-72
2023/07/05 03:55:42;;;;;;;4.83;1.98;;;19.10;74.60;;;;;;896787;155;27390;-72
2023/07/05 03:58:09;;;;;;;2.10;1.90;;;19.10;75.00;;;;;;897358;155;27404;-72
2023/07/05 04:00:35;;;;;;;2.87;2.00;;;19.10;75.20;;;;;;899312;155;27979;-72
2023/07/05 04:03:02;;;;;;;2.40;1.92;;;19.10;75.90;;;;;;899540;155;27389;-72
2023/07/05 04:05:29;;;;;;;2.02;1.50;;;19.10;76.00;;;;;;897696;155;27440;-72
2023/07/05 04:07:55;;;;;;;2.47;1.80;;;19.20;76.50;;;;;;898678;154;27446;-72
2023/07/05 04:10:22;;;;;;;2.20;1.87;;;19.20;76.80;;;;;;899228;155;27496;-72
2023/07/05 04:12:48;;;;;;;3.65;1.92;;;19.30;77.30;;;;;;899148;155;27414;-72
2023/07/05 04:15:15;;;;;;;2.42;2.00;;;19.30;77.50;;;;;;898439;155;27552;-72
2023/07/05 04:17:41;;;;;;;6.45;2.00;;;19.40;77.80;;;;;;898526;155;27323;-72
2023/07/05 04:20:08;;;;;;;2.60;1.90;;;19.40;78.00;;;;;;899313;155;27374;-72
2023/07/05 04:22:38;;;;;;;2.95;2.00;;;19.40;78.40;;;;;;900965;155;27407;-72
2023/07/05 04:25:04;;;;;;;2.05;1.82;;;19.50;78.80;;;;;;899047;155;27391;-72
2023/07/05 04:27:31;;;;;;;3.20;2.10;;;19.60;79.00;;;;;;897941;155;27367;-72
2023/07/05 04:29:57;;;;;;;1.90;1.80;;;19.60;79.40;;;;;;898653;155;27485;-72
2023/07/05 04:32:24;;;;;;;2.52;2.05;;;19.60;79.90;;;;;;898356;155;27419;-72
2023/07/05 04:34:51;;;;;;;2.40;2.20;;;19.70;80.00;;;;;;900861;155;27531;-72
2023/07/05 04:37:17;;;;;;;2.80;2.00;;;19.80;80.60;;;;;;899731;155;27360;-72
2023/07/05 04:39:44;;;;;;;2.15;1.95;;;19.80;81.00;;;;;;897537;156;27406;-72
2023/07/05 04:42:10;;;;;;;1.85;1.57;;;19.90;81.60;;;;;;898742;155;27352;-72
2023/07/05 04:44:37;;;;;;;2.87;2.10;;;20.00;82.10;;;;;;900161;155;27402;-72
2023/07/05 04:47:03;;;;;;;1.60;1.50;;;20.10;82.80;;;;;;898031;155;27400;-72
2023/07/05 04:49:30;;;;;;;1.65;1.50;;;20.20;83.30;;;;;;897707;155;27391;-72
2023/07/05 04:51:57;;;;;;;3.72;1.70;;;20.30;83.60;;;;;;897153;155;27788;-72
2023/07/05 04:54:23;;;;;;;1.62;1.45;;;20.50;84.30;;;;;;899918;155;27417;-72
2023/07/05 04:56:50;;;;;;;3.10;1.60;;;20.60;84.40;;;;;;900078;155;27468;-72
2023/07/05 04:59:19;;;;;;;1.85;1.62;;;20.80;84.00;;;;;;898901;155;27478;-72
2023/07/05 05:01:43;;;;;;;1.65;1.55;;;21.00;85.20;;;;;;898822;155;28076;-72
2023/07/05 05:04:10;;;;;;;1.60;1.50;;;21.20;86.70;;;;;;897229;155;27406;-72
2023/07/05 05:06:36;;;;;;;2.52;1.45;;;21.50;89.10;;;;;;898890;155;27410;-72
2023/07/05 05:09:03;;;;;;;2.27;1.50;;;21.90;91.10;;;;;;898489;155;27479;-72
2023/07/05 05:11:30;;;;;;;2.00;1.50;;;22.40;91.90;;;;;;898472;155;27391;-73
2023/07/05 05:13:56;;;;;;;1.50;1.40;;;23.00;91.10;;;;;;898162;155;27496;-72
2023/07/05 05:16:23;;;;;;;3.72;1.82;;;23.50;86.60;;;;;;899367;155;27378;-73
2023/07/05 05:18:49;;;;;;;2.02;1.45;;;23.90;80.90;;;;;;899379;155;27532;-72
2023/07/05 05:21:16;;;;;;;1.72;1.62;;;24.10;77.00;;;;;;897725;155;27382;-72
2023/07/05 05:23:42;;;;;;;3.83;1.47;;;24.30;74.80;;;;;;898490;155;27371;-73
2023/07/05 05:26:09;;;;;;;3.25;1.50;;;24.20;73.20;;;;;;899266;155;27464;-72
2023/07/05 05:28:36;;;;;;;1.47;1.37;;;24.20;72.60;;;;;;900931;155;27508;-73
2023/07/05 05:31:02;;;;;;;1.92;1.65;;;24.10;72.60;;;;;;898118;155;27365;-72
2023/07/05 05:33:29;;;;;;;1.62;1.32;;;23.90;72.40;;;;;;898918;155;27354;-72
2023/07/05 05:35:55;;;;;;;1.50;1.40;;;23.80;72.30;;;;;;897717;155;27456;-72
2023/07/05 05:38:22;;;;;;;2.42;1.65;;;23.70;72.20;;;;;;898751;155;27519;-72
2023/07/05 05:40:49;;;;;;;1.62;1.52;;;23.60;72.50;;;;;;899261;155;27395;-72
2023/07/05 05:43:15;;;;;;;3.90;1.87;;;23.40;72.70;;;;;;899050;155;27503;-72
2023/07/05 05:45:42;;;;;;;1.87;1.47;;;23.30;73.00;;;;;;898887;155;27512;-73
2023/07/05 05:48:08;;;;;;;1.62;1.50;;;23.10;73.60;;;;;;898767;155;27341;-72
2023/07/05 05:50:35;;;;;;;3.83;1.50;;;23.00;74.20;;;;;;900642;155;27406;-72
2023/07/05 05:53:02;;;;;;;1.77;1.67;;;22.80;74.70;;;;;;899284;155;27378;-73
2023/07/05 05:55:28;;;;;;;2.50;1.70;;;22.70;75.20;;;;;;898861;155;27494;-73
2023/07/05 05:57:55;;;;;;;2.10;1.60;;;22.50;75.50;;;;;;897262;155;27348;-73
2023/07/05 06:00:21;;;;;;;4.45;1.75;;;22.40;76.10;;;;;;900441;155;27400;-73
2023/07/05 06:02:48;;;;;;;2.08;1.50;;;22.20;76.70;;;;;;898884;155;27369;-73
2023/07/05 06:05:15;;;;;;;2.15;1.40;;;22.10;77.30;;;;;;899306;155;27768;-73
2023/07/05 06:07:41;;;;;;;1.70;1.60;;;21.90;78.10;;;;;;898467;155;27799;-72
2023/07/05 06:10:08;;;;;;;2.17;1.70;;;21.80;78.50;;;;;;898795;155;27435;-73
2023/07/05 06:12:40;;;;;;;1.87;1.75;;;21.70;79.30;;;;;;898761;155;27499;-72
2023/07/05 06:15:01;;;;;;;2.62;1.50;;;21.60;79.80;;;;;;898194;155;27456;-72
2023/07/05 06:17:27;;;;;;;1.55;1.45;;;21.50;80.60;;;;;;899641;155;27936;-71
2023/07/05 06:19:54;;;;;;;2.87;1.92;;;21.40;81.30;;;;;;898466;157;27944;-72
2023/07/05 06:22:20;;;;;;;3.12;1.67;;;21.40;81.90;;;;;;899276;155;27424;-72
2023/07/05 06:24:47;;;;;;;2.25;1.72;;;21.30;82.30;;;;;;897319;155;27454;-72
2023/07/05 06:27:14;;;;;;;2.00;1.57;;;21.30;82.80;;;;;;898216;155;27370;-72
2023/07/05 06:29:40;;;;;;;1.60;1.50;;;21.30;83.40;;;;;;901606;155;27359;-72
2023/07/05 06:32:07;;;;;;;4.15;2.08;;;21.30;83.70;;;;;;900754;155;27527;-72
2023/07/05 06:34:33;;;;;;;2.02;1.62;;;21.30;84.60;;;;;;899156;155;27451;-75
2023/07/05 06:37:00;;;;;;;2.77;1.57;;;21.30;85.40;;;;;;897712;155;27412;-76
2023/07/05 06:39:27;;;;;;;1.60;1.50;;;21.40;87.00;;;;;;899911;155;27400;-75
2023/07/05 06:41:53;;;;;;;1.95;1.72;;;21.50;88.10;;;;;;898703;155;27447;-75
2023/07/05 06:44:20;;;;;;;2.12;1.85;;;21.70;89.30;;;;;;899143;155;27504;-76
2023/07/05 06:46:46;;;;;;;2.70;2.00;;;22.00;89.40;;;;;;900561;156;27367;-75
2023/07/05 06:49:13;;;;;;;2.42;2.00;;;22.30;91.50;;;;;;898035;155;27329;-75
2023/07/05 06:51:40;;;;;;;1.67;1.57;;;22.80;92.80;;;;;;899236;155;27379;-76
2023/07/05 06:54:06;;;;;;;2.37;2.17;;;23.50;94.20;;;;;;899754;155;27534;-76
2023/07/05 06:56:33;;;;;;;2.22;1.70;;;24.50;92.70;;;;;;890621;155;27432;-76
2023/07/05 06:58:59;;;;;;;2.05;1.60;;;25.40;88.90;;;;;;899208;155;27296;-77
2023/07/05 07:01:26;;;;;;;1.90;1.80;;;26.20;79.40;;;;;;899824;155;27419;-77
2023/07/05 07:03:53;;;;;;;1.80;1.70;;;26.80;73.10;;;;;;900390;155;27462;-76
2023/07/05 07:06:19;;;;;;;5.95;1.95;;;27.30;69.00;;;;;;897917;154;27485;-77
2023/07/05 07:08:46;;;;;;;2.02;1.92;;;27.60;65.70;;;;;;898509;155;27404;-77
2023/07/05 07:11:12;;;;;;;2.50;2.08;;;27.70;64.20;;;;;;898755;155;27829;-77
2023/07/05 07:13:39;;;;;;;2.35;2.10;;;27.80;62.60;;;;;;898912;156;27381;-77
2023/07/05 07:16:05;;;;;;;2.30;2.10;;;27.90;61.50;;;;;;897497;155;27415;-77
2023/07/05 07:18:36;;;;;;;2.52;2.33;;;27.90;60.50;;;;;;899390;155;27375;-77
2023/07/05 07:20:59;;;;;;;3.42;2.17;;;28.10;61.00;;;;;;898651;155;27496;-77
2023/07/05 07:23:25;;;;;;;3.92;2.40;;;28.30;61.80;;;;;;899914;155;27412;-77
2023/07/05 07:25:58;;;;;;;2.45;2.15;;;28.70;61.40;;;;;;899313;155;27391;-77
2023/07/05 07:28:24;;;;;;;2.72;2.27;;;29.30;61.70;;;;;;899650;155;27522;-77
2023/07/05 07:30:51;;;;;;;2.90;2.70;;;30.00;60.50;;;;;;898563;155;27412;-77
2023/07/05 07:33:17;;;;;;;3.90;2.92;;;30.70;59.00;;;;;;900283;155;27333;-77
2023/07/05 07:35:44;;;;;;;3.30;3.00;;;31.40;57.00;;;;;;900021;155;27404;-77
2023/07/05 07:38:11;;;;;;;3.20;2.67;;;32.00;55.10;;;;;;898202;155;27418;-78
2023/07/05 07:40:37;;;;;;;2.62;2.40;;;32.40;53.40;;;;;;897749;155;27487;-77
2023/07/05 07:43:04;;;;;;;5.95;2.58;;;32.50;51.10;;;;;;896852;155;27372;-77
2023/07/05 07:45:30;;;;;;;2.67;2.47;;;32.50;49.30;;;;;;898246;155;27498;-77
2023/07/05 07:47:57;;;;;;;3.58;2.65;;;32.20;48.50;;;;;;897611;155;26307;-78
2023/07/05 07:50:24;;;;;;;4.08;2.60;;;31.90;48.00;;;;;;900469;157;27444;-77
2023/07/05 07:52:50;;;;;;;3.45;3.10;;;31.60;47.60;;;;;;898836;155;27395;-77
2023/07/05 07:55:17;;;;;;;3.00;2.70;;;31.20;47.80;;;;;;900764;155;27482;-77
2023/07/05 07:57:43;;;;;;;2.77;2.58;;;31.00;47.80;;;;;;899927;155;27411;-77
2023/07/05 08:00:10;;;;;;;2.90;2.62;;;30.80;48.30;;;;;;895934;155;27380;-77
2023/07/05 08:02:37;;;;;;;2.75;2.55;;;30.60;48.50;;;;;;896729;155;27359;-77
2023/07/05 08:05:03;;;;;;;2.80;2.60;;;30.70;49.10;;;;;;900105;155;27354;-77
2023/07/05 08:07:30;;;;;;;3.20;2.90;;;30.90;49.90;;;;;;900356;156;27387;-77
2023/07/05 08:09:56;;;;;;;2.65;2.45;;;31.30;49.40;;;;;;899049;157;27487;-77
2023/07/05 08:12:23;;;;;;;3.70;2.50;;;31.70;48.80;;;;;;899092;155;26450;-77
2023/07/05 08:14:49;;;;;;;3.05;2.60;;;32.10;48.20;;;;;;898131;155;27378;-77
2023/07/05 08:17:16;;;;;;;2.52;2.33;;;32.50;47.20;;;;;;897906;155;28156;-77
2023/07/05 08:19:43;;;;;;;4.10;2.98;;;32.70;46.70;;;;;;897395;155;27510;-77
2023/07/05 08:22:10;;;;;;;2.72;2.52;;;33.00;46.40;;;;;;897817;155;27545;-77
2023/07/05 08:24:36;;;;;;;2.65;2.45;;;33.30;46.00;;;;;;897607;155;26301;-77
2023/07/05 08:27:02;;;;;;;2.42;2.22;;;33.50;45.70;;;;;;898204;155;27458;-77
2023/07/05 08:29:29;;;;;;;2.50;2.30;;;33.80;45.10;;;;;;899436;155;26371;-77
2023/07/05 08:31:56;;;;;;;2.75;2.50;;;34.10;44.10;;;;;;900005;155;26397;-77
2023/07/05 08:34:22;;;;;;;3.47;2.83;;;34.20;44.30;;;;;;898560;155;26315;-76
2023/07/05 08:36:49;;;;;;;2.85;2.50;;;34.40;43.60;;;;;;896913;155;27308;-75
2023/07/05 08:39:15;;;;;;;2.72;2.52;;;34.60;43.00;;;;;;897485;155;26281;-76
2023/07/05 08:41:43;;;;;;;2.70;2.50;;;34.70;42.30;;;;;;900882;155;26379;-76
2023/07/05 08:44:17;;;;;;;2.77;2.58;;;34.80;42.10;;;;;;896253;155;26295;-76
2023/07/05 08:46:44;;;;;;;2.85;2.52;;;34.70;41.50;;;;;;898080;157;27402;-76
2023/07/05 08:49:12;;;;;;;2.80;2.60;;;34.70;41.40;;;;;;898560;155;26322;-76
2023/07/05 08:51:37;;;;;;;3.35;2.47;;;34.60;41.00;;;;;;899491;155;27401;-76
2023/07/05 08:54:10;;;;;;;3.42;2.90;;;34.40;40.40;;;;;;899945;155;27426;-76
2023/07/05 08:56:31;;;;;;;3.10;2.80;;;34.20;40.70;;;;;;899598;155;27389;-76
2023/07/05 08:58:59;;;;;;;2.87;2.60;;;33.80;39.80;;;;;;895326;155;27394;-76
2023/07/05 09:01:29;;;;;;;2.60;2.40;;;33.60;40.10;;;;;;898080;155;27537;-75
2023/07/05 09:03:56;;;;;;;4.12;2.75;;;33.30;40.70;;;;;;900318;154;27453;-76
2023/07/05 09:06:28;;;;;;;2.70;2.50;;;33.10;40.00;;;;;;899463;155;27406;-75
2023/07/05 09:09:00;;;;;;;2.80;2.60;;;32.90;40.10;;;;;;898573;155;27411;-75
2023/07/05 09:11:33;;;;;;;2.35;2.15;;;32.70;40.60;;;;;;899124;155;27415;-76
2023/07/05 09:14:27;;;;;;;3.12;2.50;;;32.50;41.20;;;;;;896671;155;27445;-76
2023/07/05 09:16:56;;;;;;;2.27;2.08;;;32.30;40.80;;;;;;896936;155;27396;-75
2023/07/05 09:19:32;;;;;;;3.25;2.80;;;32.10;40.70;;;;;;896325;155;27391;-76
2023/07/05 09:22:04;;;;;;;2.77;2.52;;;31.90;39.90;;;;;;881532;158;27461;-76
2023/07/05 09:24:36;;;;;;;2.62;2.42;;;31.60;40.80;;;;;;897828;155;27483;-75
2023/07/05 09:27:09;;;;;;;2.67;2.40;;;31.40;40.70;;;;;;895013;155;27436;-75
2023/07/05 09:29:47;;;;;;;2.62;2.17;;;31.40;41.30;;;;;;898593;155;27501;-76
2023/07/05 09:32:16;;;;;;;2.47;2.30;;;31.50;42.00;;;;;;895725;155;27413;-76
2023/07/05 09:34:43;;;;;;;2.35;2.15;;;31.80;42.30;;;;;;898607;155;27370;-75
2023/07/05 09:37:16;;;;;;;2.50;2.30;;;32.00;41.90;;;;;;897778;157;27488;-76
2023/07/05 09:39:48;;;;;;;2.08;1.92;;;32.30;40.70;;;;;;899024;155;27492;-75
2023/07/05 09:42:14;;;;;;;2.52;2.33;;;32.30;39.80;;;;;;897635;157;27401;-75
2023/07/05 09:44:41;;;;;;;2.50;2.30;;;32.20;39.20;;;;;;899077;155;27314;-76
2023/07/05 09:47:07;;;;;;;2.05;1.95;;;32.00;39.00;;;;;;898740;157;27417;-76
2023/07/05 09:49:34;;;;;;;2.20;2.00;;;31.80;39.60;;;;;;897745;155;27391;-75
2023/07/05 09:52:01;;;;;;;2.00;1.90;;;31.70;39.90;;;;;;900660;155;27437;-75
2023/07/05 09:54:30;;;;;;;2.65;2.27;;;31.60;39.50;;;;;;900440;155;27300;-75
2023/07/05 09:57:00;;;;;;;2.33;2.05;;;31.50;39.60;;;;;;896980;155;27335;-76
2023/07/05 09:59:26;;;;;;;2.00;1.90;;;31.40;39.80;;;;;;897551;157;27490;-75
2023/07/05 10:01:55;;;;;;;2.42;2.20;;;31.30;40.00;;;;;;899977;154;27364;-75
2023/07/05 10:04:26;;;;;;;2.00;1.90;;;31.40;39.70;;;;;;897931;155;26748;-76
2023/07/05 10:06:51;;;;;;;1.90;1.70;;;31.30;39.60;;;;;;900769;155;27420;-75
2023/07/05 10:09:19;;;;;;;2.20;1.90;;;31.30;39.90;;;;;;901051;155;27375;-75
2023/07/05 10:11:45;;;;;;;1.92;1.82;;;31.20;39.40;;;;;;898068;157;27366;-76
2023/07/05 10:14:12;;;;;;;1.22;1.15;;;31.20;39.20;;;;;;897553;155;27359;-75
2023/07/05 10:16:53;;;;;;;1.52;1.42;;;31.20;38.90;;;;;;899895;155;27387;-76
2023/07/05 10:19:28;;;;;;;1.40;1.30;;;31.20;38.70;;;;;;896912;155;27509;-75
2023/07/05 10:21:57;;;;;;;4.12;1.70;;;31.10;39.00;;;;;;898943;155;27499;-75
2023/07/05 10:24:24;;;;;;;2.37;1.32;;;31.10;38.80;;;;;;898013;156;27523;-75
2023/07/05 10:26:50;;;;;;;3.15;1.30;;;31.00;38.30;;;;;;899256;155;27456;-75
2023/07/05 10:29:17;;;;;;;1.72;1.50;;;30.90;38.10;;;;;;899477;155;27375;-75
2023/07/05 10:31:43;;;;;;;2.22;1.42;;;30.70;37.90;;;;;;898229;155;27828;-75
2023/07/05 10:34:16;;;;;;;1.52;1.35;;;30.50;37.80;;;;;;896526;155;27408;-75
2023/07/05 10:36:46;;;;;;;1.20;1.20;;;30.30;38.10;;;;;;897664;155;27529;-75
2023/07/05 10:39:12;;;;;;;1.10;1.05;;;30.10;38.40;;;;;;897335;155;27465;-75
2023/07/05 10:41:41;;;;;;;1.55;1.45;;;30.00;38.50;;;;;;898527;155;27492;-75
2023/07/05 10:44:08;;;;;;;1.57;1.25;;;29.90;38.30;;;;;;896894;155;27515;-75
2023/07/05 10:46:35;;;;;;;2.25;1.52;;;29.80;38.30;;;;;;898899;155;27489;-76
2023/07/05 10:49:01;;;;;;;1.45;1.30;;;29.70;38.10;;;;;;897639;155;27470;-75
2023/07/05 10:51:28;;;;;;;1.80;1.12;;;29.50;38.20;;;;;;897229;155;27370;-75
2023/07/05 10:54:21;;;;;;;1.92;1.40;;;29.30;38.10;;;;;;897458;155;27419;-75
2023/07/05 10:56:48;;;;;;;1.55;1.37;;;29.20;38.50;;;;;;899316;155;27501;-75
2023/07/05 10:59:26;;;;;;;1.40;1.12;;;29.00;38.50;;;;;;897881;155;27421;-75
2023/07/05 11:01:54;;;;;;;1.60;1.50;;;28.90;38.70;;;;;;899648;155;27360;-75
2023/07/05 11:04:20;;;;;;;1.57;1.47;;;28.80;38.80;;;;;;899048;155;27503;-75
2023/07/05 11:06:46;;;;;;;1.62;1.52;;;28.70;38.80;;;;;;899895;155;27428;-75
2023/07/05 11:09:13;;;;;;;1.60;1.50;;;28.60;39.10;;;;;;898380;155;27415;-75
2023/07/05 11:11:42;;;;;;;1.80;1.70;;;28.50;39.10;;;;;;898512;155;27739;-75
2023/07/05 11:14:12;;;;;;;1.37;1.27;;;28.40;38.90;;;;;;896420;155;27392;-75
2023/07/05 11:16:35;;;;;;;2.02;1.27;;;28.30;39.30;;;;;;898153;155;27475;-75
2023/07/05 11:19:02;;;;;;;1.10;1.10;;;28.20;39.10;;;;;;899006;155;27499;-75
2023/07/05 11:21:42;;;;;;;1.20;1.10;;;28.10;39.00;;;;;;896334;155;27484;-75
2023/07/05 11:24:07;;;;;;;1.65;1.35;;;28.00;38.80;;;;;;896966;155;27500;-75
2023/07/05 11:26:42;;;;;;;1.22;1.05;;;27.90;38.90;;;;;;867046;161;27476;-75
2023/07/05 11:29:27;;;;;;;1.27;1.17;;;27.80;39.00;;;;;;898974;155;27501;-75
2023/07/05 11:31:54;;;;;;;1.27;1.15;;;27.70;39.10;;;;;;896914;157;27859;-75
2023/07/05 11:34:26;;;;;;;1.98;1.10;;;27.70;39.30;;;;;;897966;155;27443;-75
2023/07/05 11:37:01;;;;;;;2.47;1.40;;;27.60;39.30;;;;;;897153;155;27409;-75
2023/07/05 11:39:40;;;;;;;1.82;1.32;;;27.60;39.50;;;;;;898005;155;28175;-75
2023/07/05 11:42:12;;;;;;;2.02;1.30;;;27.60;39.00;;;;;;899284;155;27453;-75
2023/07/05 11:44:39;;;;;;;0.95;0.88;;;27.60;38.90;;;;;;898866;155;27479;-75
2023/07/05 11:47:05;;;;;;;0.90;0.90;;;27.50;38.60;;;;;;900219;155;27390;-75
2023/07/05 11:49:35;;;;;;;1.07;0.95;;;27.40;38.60;;;;;;898648;155;27520;-75
2023/07/05 11:52:10;;;;;;;9.70;1.32;;;27.30;38.70;;;;;;899228;154;27398;-75
2023/07/05 11:54:43;;;;;;;1.77;0.93;;;27.20;38.70;;;;;;898042;155;27821;-75
2023/07/05 11:57:09;;;;;;;1.10;1.00;;;27.10;38.80;;;;;;899080;155;27409;-75
2023/07/05 11:59:36;;;;;;;1.77;1.00;;;27.10;39.00;;;;;;896430;157;27495;-75
2023/07/05 12:02:02;;;;;;;1.85;1.10;;;27.10;39.20;;;;;;898110;155;27734;-75
2023/07/05 12:04:29;;;;;;;1.15;1.07;;;27.00;39.10;;;;;;897539;155;27521;-75
2023/07/05 12:06:55;;;;;;;1.12;1.02;;;27.00;39.20;;;;;;899421;155;27401;-75
2023/07/05 12:09:23;;;;;;;1.65;1.20;;;27.00;39.20;;;;;;898196;155;27400;-75
2023/07/05 12:11:49;;;;;;;1.72;1.00;;;27.00;38.60;;;;;;896633;155;27434;-75
2023/07/05 12:14:15;;;;;;;1.42;1.20;;;27.00;39.20;;;;;;897957;155;27410;-75
2023/07/05 12:16:42;;;;;;;2.25;1.02;;;27.00;39.30;;;;;;898212;155;27493;-75
2023/07/05 12:19:08;;;;;;;2.50;1.10;;;27.00;39.00;;;;;;900017;157;27384;-75
2023/07/05 12:21:35;;;;;;;1.27;1.10;;;27.00;38.90;;;;;;898289;155;27437;-75
2023/07/05 12:24:04;;;;;;;1.02;0.93;;;27.00;38.80;;;;;;899002;155;27480;-76
2023/07/05 12:26:31;;;;;;;1.25;0.95;;;26.90;38.60;;;;;;898866;155;27403;-75
2023/07/05 12:29:03;;;;;;;7.12;1.77;;;26.90;38.80;;;;;;900548;155;27508;-75
2023/07/05 12:31:30;;;;;;;1.32;1.12;;;26.90;39.00;;;;;;899119;155;27429;-75
2023/07/05 12:33:56;;;;;;;2.37;1.02;;;26.90;39.00;;;;;;899566;155;27435;-75
2023/07/05 12:36:23;;;;;;;2.70;1.25;;;26.80;39.10;;;;;;899974;155;27391;-75
2023/07/05 12:38:49;;;;;;;2.47;1.10;;;26.80;39.20;;;;;;897838;156;27499;-75
2023/07/05 12:41:22;;;;;;;1.60;1.27;;;26.80;39.30;;;;;;898105;155;27385;-75
2023/07/05 12:43:48;;;;;;;1.90;1.40;;;26.90;39.30;;;;;;895764;155;27372;-75
2023/07/05 12:46:17;;;;;;;1.67;1.17;;;26.90;39.30;;;;;;897319;155;27509;-75
2023/07/05 12:48:44;;;;;;;1.65;1.32;;;26.90;39.10;;;;;;898033;157;27385;-75
2023/07/05 12:51:11;;;;;;;3.50;2.12;;;27.00;39.00;;;;;;900040;157;27378;-75